Main page
METAR-TAF:

METAR-TAF

Airports :

Netaji Subhas Chandra Bose International Airport

Kolkata, India

latitude: 22-39N, longitude: 088-27E, elevation: 4 m

Current weather observation

The report was made 31 minutes ago, at 23:00 UTC
Calm wind
Temperature 13°C
Humidity 94%
Pressure 1014 hPa
Visibility: 1800 m
mist

METAR: VECC 212300Z 00000KT 1800 BR NSC 13/12 Q1014 NOSIG

Time: 05:01 (23:31 UTC)

Forecast

The report was made 3 hours and 31 minutes ago, at 20:00 UTC
Forecast valid from 21 at 21 UTC to 22 at 06 UTC
Wind kt from the North
Visibility: 2200 m
mist
Becoming
from 21 at 23 UTC to 22 at 01 UTC
Visibility: 1000 m
Shallow fog
Becoming
from 22 at 03 UTC to 22 at 05 UTC
Wind 5 kt from the North/Northeast
Visibility: 2200 m
haze

TAF: VECC 212000Z 2121/2206 00000KT 2200 BR NSC BECMG 2123/2201 1000 MIFG BECMG 2203/2205 02005KT 2200 HZ

Weather observations and forecasts of more than 4000 airports (METAR and TAF reports).

The available stations are represented by yellow and red dots on the map.

Hover mouse over dot to see the name of the station.

Then click to see weather observations and forecasts.

To change the map : click on the green buttons with a black cross to zoom in, on the green button with a dash to zoom out, or on the green arrows for adjacent maps.


METAR-TAF: